Metar Cercanos

 

LEPA - Palma De Mallorc, Spain
Distance from station: ONO 38km
Actualización: Wed, 07-Dec-2022 12:30am CET
Few Clouds
Few Clouds
 Viento del NNE
Viento: NNE 4 km/h
Temperatura: 13°C
Rocío: 12°C
Humedad: 94%
Barómetro: 1015 hPa
Clouds: Few Clouds
Visibility: 10 km
Cloud details: Few Clouds 762 m
2022/12/06 23:30 LEPA 062330Z 02002KT 9999 FEW025 13/12 Q1015 NOSIG
LEMH - Mahon/Menorca Is, Spain
Distance from station: ENE 105km
Actualización: Wed, 07-Dec-2022 12:30am CET
Despejado
Despejado
 Viento del NNO
Viento: NNO 6 km/h
Temperatura: 12°C
Rocío: 11°C
Humedad: 94%
Barómetro: 1015 hPa
Resumen: Despejado
Visibility: greater than 10 km
2022/12/06 23:30 LEMH 062330Z AUTO 33003KT CAVOK 12/11 Q1015
 
LEIB - Ibiza/Es Codola, Spain
Distance from station: OSO 165km
Actualización: Wed, 07-Dec-2022 12:30am CET
Despejado
Despejado
 Viento del calm
Viento: Calma
Temperatura: 14°C
Rocío: 13°C
Humedad: 94%
Barómetro: 1015 hPa
Resumen: Despejado
Visibility: greater than 10 km
2022/12/06 23:30 LEIB 062330Z AUTO 00000KT CAVOK 14/13 Q1015
LEBL - Barcelona Airpor, Spain
Distance from station: NNO 225km
Actualización: Wed, 07-Dec-2022 12:30am CET
Parcialmente nuboso
Parcialmente nuboso
 Viento del NNO
Viento: NNO 9 km/h
Temperatura: 9°C
Sensación frio: 7°C
Rocío: 8°C
Humedad: 94%
Barómetro: 1015 hPa
Clouds: Parcialmente nuboso
Visibility: 6 km
2022/12/06 23:30 LEBL 062330Z 33005KT 6000 NSC 09/08 Q1015 NOSIG
 
LEVC - Valencia (civ/Mi, Spain
Distance from station: NO 188km
Actualización: Wed, 07-Dec-2022 12:30am CET
Parcialmente nuboso
Parcialmente nuboso
 Viento del O
Viento: O 6 km/h
Temperatura: 11°C
Rocío: 11°C
Humedad: 100%
Barómetro: 1016 hPa
Clouds: Parcialmente nuboso
Visibility: 7 km
2022/12/06 23:30 LEVC 062330Z 28003KT 7000 NSC 11/11 Q1016 NOSIG
LEGE - Gerona/Costa Bra, Spain
Distance from station: N 276km
Actualización: Wed, 07-Dec-2022 12:30am CET
Niebla, Parcialmente nuboso
Niebla, Parcialmente nuboso
 Viento del calm
Viento: Calma
Temperatura: 5°C
Rocío: 5°C
Humedad: 100%
Barómetro: 1015 hPa
Resumen: Niebla
Clouds: Parcialmente nuboso
Visibility: 1 km
2022/12/06 23:30 LEGE 062330Z 00000KT 0500 R19/0650D R01/0650D FG NSC 05/05 Q1015
 
LEAL - Alicante/El Alte, Spain
Distance from station: OSO 344km
Actualización: Wed, 07-Dec-2022 12:30am CET
Few Clouds
Few Clouds
 Viento del O
Viento: O 6 km/h
Temperatura: 15°C
Rocío: 13°C
Humedad: 88%
Barómetro: 1016 hPa
Clouds: Few Clouds
Visibility: 10 km
Cloud details: Few Clouds 1524 m
2022/12/06 23:30 LEAL 062330Z 27003KT 9999 FEW050 15/13 Q1016 NOSIG
LEAM - Almeria Airport, Spain
Distance from station: SSO 56km
Actualización: Wed, 07-Dec-2022 12:30am CET
Parcialmente nuboso
Parcialmente nuboso
 Viento del NNO
Viento: NNO 9 km/h
Temperatura: 15°C
Rocío: 13°C
Humedad: 88%
Barómetro: 1016 hPa
Clouds: Parcialmente nuboso
Visibility: 10 km
Cloud details: Few Clouds 2286 m
Parcialmente nuboso 2438 m
2022/12/06 23:30 LEAM 062330Z AUTO 34005KT 9999 FEW075 SCT080 15/13 Q1016
 
LEZG - Zaragoza (mil/Ci, Spain
Distance from station: NO 431km
Actualización: Wed, 07-Dec-2022 12:30am CET
Mist, Cubierto
Mist, Cubierto
 Viento del O
Viento: O 7 km/h
Temperatura: 8°C
Sensación frio: 7°C
Rocío: 7°C
Humedad: 93%
Barómetro: 1017 hPa
Resumen: Mist
Clouds: Cubierto
Visibility: 3 km
Cloud details: Cubierto 122 m
2022/12/06 23:30 LEZG 062330Z 27004KT 230V330 3000 BR OVC004 08/07 Q1017
LEMD - Madrid/Barajas, Spain
Distance from station: ONO 234km
Actualización: Wed, 07-Dec-2022 12:30am CET
Mist, Muy nuboso
Mist, Muy nuboso
 Viento del calm
Viento: Calma
Temperatura: 10°C
Rocío: 9°C
Humedad: 94%
Barómetro: 1017 hPa
Resumen: Mist
Clouds: Muy nuboso
Visibility: 5 km
Cloud details: Parcialmente nuboso 457 m
Muy nuboso 2134 m
2022/12/06 23:30 LEMD 062330Z 00000KT 5000 BR SCT015 BKN070 10/09 Q1017 NOSIG
 
LEGR - Granada Airport, Spain
Distance from station: OSO 62km
Actualización: Wed, 07-Dec-2022 12:30am CET
Despejado
Despejado
 Viento del SO
Viento: SO 6 km/h
Temperatura: 7°C
Rocío: 7°C
Humedad: 100%
Barómetro: 1017 hPa
Resumen: Despejado
Visibility: greater than 10 km
2022/12/06 23:30 LEGR 062330Z AUTO 22003KT 150V240 CAVOK 07/07 Q1017
LEMG - Malaga (civ/Mil), Spain
Distance from station: OSO 227km
Actualización: Wed, 07-Dec-2022 12:30am CET
Despejado
Despejado
 Viento del ONO
Viento: ONO 13 km/h
Temperatura: 12°C
Rocío: 11°C
Humedad: 94%
Barómetro: 1016 hPa
Resumen: Despejado
Visibility: greater than 10 km
2022/12/06 23:30 LEMG 062330Z 30007KT CAVOK 12/11 Q1016 NOSIG
 
LEZL - Sevilla (civ/Mil, Spain
Distance from station: S 318km
Actualización: Wed, 07-Dec-2022 12:30am CET
Few Clouds
Few Clouds
 Viento del varies
Viento: varies 4 km/h
Temperatura: 13°C
Rocío: 13°C
Humedad: 100%
Barómetro: 1016 hPa
Clouds: Few Clouds
Visibility: 7 km
Cloud details: Few Clouds 610 m
2022/12/06 23:30 LEZL 062330Z VRB02KT 7000 FEW020 13/13 Q1016 NOSIG
LEVT - Vitoria, Spain
Distance from station: NO 226km
Actualización: Wed, 07-Dec-2022 12:30am CET
Mist, Muy nuboso
Mist, Muy nuboso
 Viento del ONO
Viento: ONO 2 km/h
Temperatura: 6°C
Rocío: 6°C
Humedad: 100%
Barómetro: 1017 hPa
Resumen: Mist
Clouds: Muy nuboso
Visibility: 5 km
Cloud details: Muy nuboso 2134 m
2022/12/06 23:30 LEVT 062330Z 30001KT 5000 BR BKN070 06/06 Q1017
 
LEBB - Bilbao/Sondica, Spain
Distance from station: NNO 235km
Actualización: Wed, 07-Dec-2022 12:30am CET
Few Clouds
Few Clouds
 Viento del calm
Viento: Calma
Temperatura: 10°C
Rocío: 10°C
Humedad: 100%
Barómetro: 1017 hPa
Clouds: Few Clouds
Visibility: 10 km
Cloud details: Few Clouds 518 m
2022/12/06 23:30 LEBB 062330Z AUTO 00000KT 9999 FEW017 10/10 Q1017
LESO - San Sebastian/Fu, Spain
Distance from station: N 231km
Actualización: Wed, 07-Dec-2022 12:30am CET
Few Clouds
Few Clouds
 Viento del SO
Viento: SO 6 km/h
Temperatura: 11°C
Rocío: 10°C
Humedad: 94%
Barómetro: 1017 hPa
Clouds: Few Clouds
Visibility: 10 km
Cloud details: Few Clouds 823 m
2022/12/06 23:30 LESO 062330Z AUTO 22003KT 180V270 9999 FEW027 11/10 Q1017
 
LEVD - Valladolid(Mil/C, Spain
Distance from station: ONO 239km
Actualización: Wed, 07-Dec-2022 12:30am CET

 Viento del NNE
Viento: NNE 6 km/h
Visibility: 4 km
2022/12/06 23:30 LEVD 062330Z AUTO 03003KT 3800 1000 BR NSC 07/07 Q1016
LESA - Salamanca (civ/M, Spain
Distance from station: ONO 349km
Actualización: Wed, 07-Dec-2022 12:30am CET
Lluvia débil, Mist, Cubierto
Lluvia débil, Mist, Cubierto
 Viento del NE
Viento: NE 6 km/h
Temperatura: 8°C
Rocío: 7°C
Humedad: 93%
Barómetro: 1016 hPa
Resumen: Lluvia débil, Mist
Clouds: Cubierto
Visibility: 2 km
Cloud details: Muy nuboso 1280 m
Cubierto 1494 m
2022/12/06 23:30 LESA 062330Z AUTO 04003KT 1900 -RA BR BKN042 OVC049 08/07 Q1016
 
LEXJ - Santander/Paraya, Spain
Distance from station: NNO 247km
Actualización: Wed, 07-Dec-2022 12:30am CET
Parcialmente nuboso
Parcialmente nuboso
 Viento del varies
Viento: varies 4 km/h
Temperatura: 10°C
Rocío: 8°C
Humedad: 88%
Barómetro: 1017 hPa
Clouds: Parcialmente nuboso
Visibility: 7 km
Cloud details: Parcialmente nuboso 1494 m
Parcialmente nuboso 2591 m
2022/12/06 23:30 LEXJ 062330Z AUTO VRB02KT 7000 SCT049 SCT085 10/08 Q1017
LEAS - Asturias/Aviles, Spain
Distance from station: NO 214km
Actualización: Wed, 07-Dec-2022 12:30am CET
Cubierto
Cubierto
 Viento del calm
Viento: Calma
Temperatura: 11°C
Rocío: 10°C
Humedad: 94%
Barómetro: 1017 hPa
Clouds: Cubierto
Visibility: 10 km
Cloud details: Few Clouds 1189 m
Cubierto 2438 m
2022/12/06 23:30 LEAS 062330Z AUTO 00000KT 9999 FEW039 OVC080 11/10 Q1017
 
LECO - La Coruna/Alvedr, Spain
Distance from station: ONO 222km
Actualización: Wed, 07-Dec-2022 12:30am CET
Mist, Few clouds
Mist, Few clouds
 Viento del SSE
Viento: SSE 4 km/h
Temperatura: 11°C
Rocío: 11°C
Humedad: 100%
Barómetro: 1016 hPa
Resumen: Mist
Clouds: Few Clouds
Visibility: 4 km
Cloud details: Few Clouds 366 m
2022/12/06 23:30 LECO 062330Z 16002KT 3500 BR FEW012 11/11 Q1016 NOSIG
LEVX - Vigo/Peinador, Spain
Distance from station: O 214km
Actualización: Wed, 07-Dec-2022 12:30am CET
Despejado
Despejado
 Viento del OSO
Viento: OSO 9 km/h
Temperatura: 10°C
Sensación frio: 9°C
Rocío: 9°C
Humedad: 94%
Barómetro: 1015 hPa
Resumen: Despejado
Visibility: greater than 10 km
2022/12/06 23:30 LEVX 062330Z 24005KT 210V270 CAVOK 10/09 Q1015 NOSIG